createdAt,value
2017-12-19T07:47:54.015Z,26.05
2017-12-19T07:50:25.548Z,25.02
2017-12-19T07:53:01.316Z,26.33
2017-12-19T08:06:40.806Z,23.77
2017-12-19T08:15:36.420Z,27.48
2017-12-19T08:18:35.584Z,30.75
2017-12-19T08:24:10.729Z,28.20
2017-12-19T08:33:10.393Z,30.80
2017-12-19T08:35:40.004Z,38.38
2017-12-19T08:47:19.272Z,27.15
2017-12-19T08:49:51.058Z,29.55
2017-12-19T09:39:23.914Z,23.83
2017-12-19T09:42:08.683Z,25.02
2017-12-19T09:47:41.062Z,23.75
2017-12-19T09:50:11.717Z,25.00
2017-12-19T10:15:43.931Z,25.35
2017-12-19T10:18:45.991Z,24.77
2017-12-19T10:21:45.895Z,26.17
2017-12-19T10:27:48.711Z,23.87
2017-12-19T10:33:47.484Z,25.12
2017-12-19T10:48:39.916Z,23.80
2017-12-19T10:51:49.303Z,23.12
2017-12-19T10:54:18.486Z,23.98
2017-12-19T11:00:10.146Z,24.73
2017-12-19T11:02:42.860Z,21.70
2017-12-19T11:05:16.022Z,22.05
2017-12-19T11:08:00.613Z,24.50
2017-12-19T11:10:38.024Z,23.73
2017-12-19T11:34:45.091Z,22.52
2017-12-19T11:40:47.664Z,20.23
2017-12-19T11:43:37.681Z,24.08
2017-12-19T11:55:20.427Z,25.98
2017-12-19T11:58:06.323Z,24.70
2017-12-19T12:00:44.126Z,23.02
2017-12-19T12:12:48.913Z,26.05
2017-12-19T12:47:34.499Z,24.63
2017-12-19T13:14:47.356Z,27.62
2017-12-19T13:17:34.154Z,26.37
2017-12-19T13:20:07.878Z,30.05
2017-12-19T14:01:49.786Z,24.98
2017-12-19T14:04:18.129Z,25.52
2017-12-19T14:06:45.803Z,25.05
2017-12-19T14:09:13.311Z,25.12
2017-12-19T14:11:40.971Z,25.15
2017-12-19T14:14:11.796Z,24.40
2017-12-19T14:16:40.190Z,21.40
2017-12-19T14:19:10.987Z,21.80
2017-12-19T14:21:41.141Z,23.73
2017-12-19T14:24:15.916Z,26.02
2017-12-19T14:26:46.474Z,22.35
2017-12-19T14:29:35.996Z,23.30
2017-12-19T14:47:34.269Z,21.98
2017-12-19T14:52:43.134Z,21.27
2017-12-19T14:55:23.210Z,20.05
2017-12-19T14:57:50.755Z,22.75
2017-12-19T15:12:13.644Z,20.00
2017-12-19T15:14:41.584Z,20.80
2017-12-19T15:17:10.715Z,19.20
2017-12-19T15:19:41.644Z,20.73
2017-12-19T15:22:15.998Z,20.70
2017-12-19T15:24:43.507Z,21.92
2017-12-19T15:27:12.886Z,17.05
2017-12-19T15:29:51.036Z,17.10
2017-12-19T15:32:18.506Z,19.00
2017-12-19T15:34:45.950Z,19.23
2017-12-19T15:37:13.445Z,18.40
2017-12-19T15:39:43.667Z,17.60
2017-12-19T15:42:11.524Z,19.17
2017-12-19T15:44:39.307Z,17.02
2017-12-19T15:47:06.813Z,16.50
2017-12-19T15:49:34.332Z,16.15
2017-12-19T15:52:01.784Z,17.20
2017-12-19T15:54:29.216Z,17.35
2017-12-19T15:56:58.269Z,16.98
2017-12-19T15:59:25.788Z,18.30
2017-12-19T16:01:53.288Z,15.43
2017-12-19T16:04:21.655Z,14.57
2017-12-19T16:06:49.813Z,14.77
2017-12-19T16:09:17.253Z,17.05
2017-12-19T16:11:44.706Z,16.87
2017-12-19T16:14:13.143Z,16.92
2017-12-19T16:16:40.860Z,17.40
2017-12-19T16:19:08.464Z,16.25
2017-12-19T16:21:37.572Z,15.40
2017-12-19T16:24:06.987Z,15.40
2017-12-19T16:26:36.946Z,18.50
2017-12-19T16:29:05.687Z,16.80
2017-12-19T16:31:33.232Z,19.40
2017-12-19T16:34:10.482Z,18.95
2017-12-19T16:36:38.213Z,19.08
2017-12-19T16:39:08.283Z,18.27
2017-12-19T16:41:36.704Z,18.73
2017-12-19T16:44:04.472Z,17.83
2017-12-19T16:46:31.934Z,19.17
2017-12-19T16:48:59.401Z,18.67
2017-12-19T16:51:26.868Z,18.12
2017-12-19T16:53:54.380Z,20.45
2017-12-19T16:56:21.816Z,19.62
2017-12-19T16:58:50.126Z,20.55
2017-12-19T17:01:17.753Z,18.92
2017-12-19T17:03:45.699Z,20.27
2017-12-19T17:06:15.985Z,20.85
2017-12-19T17:08:46.711Z,19.95
2017-12-19T17:11:14.203Z,20.75
2017-12-19T17:13:41.676Z,20.33
2017-12-19T17:16:10.221Z,19.45
2017-12-19T17:18:38.561Z,19.52
2017-12-19T17:21:08.659Z,19.60
2017-12-19T17:23:40.181Z,20.50
2017-12-19T17:26:09.106Z,21.80
2017-12-19T17:31:26.470Z,19.95
2017-12-19T17:33:53.996Z,21.45
2017-12-19T17:36:21.419Z,20.23
2017-12-19T17:38:52.479Z,19.85
2017-12-19T17:41:19.923Z,22.20
2017-12-19T17:43:47.461Z,22.00
2017-12-19T17:49:17.133Z,23.12
2017-12-19T17:51:45.744Z,22.20
2017-12-19T17:54:16.592Z,23.23
2017-12-19T17:56:44.287Z,22.48
2017-12-19T17:59:13.687Z,22.27
2017-12-19T18:01:42.705Z,23.20
2017-12-19T18:04:10.257Z,22.85
2017-12-19T18:06:37.691Z,21.85
2017-12-19T18:09:05.140Z,21.33
2017-12-19T18:11:36.172Z,20.50
2017-12-19T18:14:06.223Z,20.62
2017-12-19T18:16:35.661Z,24.30
2017-12-19T18:19:03.325Z,25.20
2017-12-19T18:21:31.116Z,23.58
2017-12-19T18:23:58.671Z,20.98
2017-12-19T18:26:26.454Z,23.90
2017-12-19T18:28:53.958Z,21.65
2017-12-19T18:31:21.482Z,22.52
2017-12-19T18:33:49.526Z,22.30
2017-12-19T18:36:20.025Z,24.67
2017-12-19T18:38:49.632Z,22.30
2017-12-19T18:41:18.015Z,22.65
2017-12-19T18:43:46.093Z,24.42
2017-12-19T18:46:20.471Z,22.98
2017-12-19T18:48:54.566Z,25.50
2017-12-19T18:51:23.279Z,24.15
2017-12-19T18:53:50.985Z,24.42
2017-12-19T18:56:22.781Z,26.35
2017-12-19T18:58:51.519Z,24.40
2017-12-19T19:01:25.858Z,24.48
2017-12-19T19:03:54.083Z,24.00
2017-12-19T19:06:24.509Z,24.20
2017-12-19T19:08:52.330Z,23.75
2017-12-19T19:11:19.841Z,24.02
2017-12-19T19:13:48.112Z,24.00
2017-12-19T19:16:15.573Z,22.02
2017-12-19T19:18:43.571Z,24.02
2017-12-19T19:21:11.680Z,24.52
2017-12-19T19:23:40.875Z,21.55
2017-12-19T19:26:10.046Z,22.75
2017-12-19T19:28:38.149Z,25.35
2017-12-19T19:31:06.775Z,21.30
2017-12-19T19:33:34.351Z,21.15
2017-12-19T19:36:02.128Z,21.62
2017-12-19T19:38:29.609Z,21.83
2017-12-19T19:40:57.127Z,22.92
2017-12-19T19:43:24.606Z,21.48
2017-12-19T19:45:52.109Z,20.77
2017-12-19T19:48:19.679Z,20.33
2017-12-19T19:50:53.919Z,23.02
2017-12-19T19:53:23.014Z,20.42
2017-12-19T19:55:55.278Z,23.33
2017-12-19T19:58:25.012Z,22.00
2017-12-19T20:00:52.874Z,22.92
2017-12-19T20:03:22.311Z,21.50
2017-12-19T20:05:50.608Z,22.92
2017-12-19T20:08:18.490Z,23.70
2017-12-19T20:10:46.087Z,21.83
2017-12-19T20:13:13.724Z,23.40
2017-12-19T20:15:41.295Z,23.48
2017-12-19T20:18:09.021Z,21.87
2017-12-19T20:20:48.310Z,21.90
2017-12-19T20:23:22.671Z,23.70
2017-12-19T21:28:45.695Z,28.17
2017-12-19T21:31:20.008Z,24.12
2017-12-19T21:33:47.626Z,22.08
2017-12-19T21:36:15.943Z,22.70
2017-12-19T21:38:44.501Z,25.40
2017-12-19T21:44:13.093Z,22.90
2017-12-19T21:46:41.990Z,22.35
2017-12-19T21:49:10.246Z,25.50
2017-12-19T21:51:37.736Z,25.67
2017-12-19T21:54:05.200Z,22.98
2017-12-19T21:56:32.698Z,24.42
2017-12-19T21:59:00.180Z,25.02
2017-12-19T22:01:31.410Z,21.62
2017-12-19T22:03:59.227Z,24.27
2017-12-19T22:06:31.863Z,21.77
2017-12-19T22:08:59.819Z,24.35
2017-12-19T22:11:30.211Z,26.27
2017-12-19T22:13:58.728Z,24.02
2017-12-19T22:16:26.408Z,21.20
2017-12-19T22:18:58.987Z,21.60
2017-12-19T22:21:30.260Z,23.92
2017-12-19T22:24:06.137Z,20.60
2017-12-19T22:26:36.416Z,19.62
2017-12-19T22:29:06.212Z,22.92
2017-12-19T22:31:36.749Z,18.40
2017-12-19T22:34:05.769Z,21.10
2017-12-19T22:36:35.691Z,23.42
2017-12-19T22:39:03.822Z,19.90
2017-12-19T22:41:31.919Z,20.65
2017-12-19T22:43:59.925Z,19.67
2017-12-19T22:46:36.024Z,21.95
2017-12-19T22:49:03.827Z,22.52
2017-12-19T22:51:32.361Z,23.73
2017-12-19T22:53:59.985Z,22.92
2017-12-19T22:56:31.909Z,23.92
2017-12-19T22:59:00.164Z,21.83
2017-12-19T23:07:17.830Z,21.42
2017-12-19T23:09:46.157Z,20.50
2017-12-19T23:15:14.930Z,22.45
2017-12-19T23:17:46.366Z,20.67
2017-12-19T23:20:13.875Z,23.23
2017-12-19T23:22:41.699Z,23.20
2017-12-19T23:25:10.256Z,23.70
2017-12-19T23:27:48.713Z,22.73
2017-12-19T23:30:33.349Z,24.05
2017-12-19T23:36:44.510Z,24.70
2017-12-19T23:39:12.058Z,23.38
2017-12-19T23:41:39.981Z,23.38
2017-12-19T23:44:11.571Z,23.87
2017-12-19T23:46:39.470Z,23.67
2017-12-19T23:49:07.725Z,24.85
2017-12-19T23:51:35.423Z,22.73
2017-12-19T23:54:03.278Z,22.80
2017-12-19T23:56:32.076Z,28.00
2017-12-19T23:59:02.976Z,24.10
